createdAt,value
2022-12-17T00:01:18.734Z,22.64
2022-12-17T00:04:07.799Z,22.40
2022-12-17T00:06:56.770Z,22.49
2022-12-17T00:09:50.105Z,22.94
2022-12-17T00:12:39.680Z,22.94
2022-12-17T00:15:29.220Z,22.64
2022-12-17T00:18:26.258Z,22.53
2022-12-17T00:21:18.948Z,22.64
2022-12-17T00:24:08.788Z,22.75
2022-12-17T00:26:57.730Z,22.76
2022-12-17T00:29:46.507Z,22.77
2022-12-17T00:32:35.374Z,23.05
2022-12-17T00:35:24.731Z,23.11
2022-12-17T00:38:13.599Z,22.86
2022-12-17T00:41:02.673Z,22.90
2022-12-17T00:43:51.667Z,23.10
2022-12-17T00:46:41.594Z,23.14
2022-12-17T00:49:40.028Z,23.00
2022-12-17T00:52:28.975Z,23.16
2022-12-17T00:55:18.300Z,23.30
2022-12-17T00:58:07.286Z,23.16
2022-12-17T01:00:56.106Z,22.85
2022-12-17T01:03:45.886Z,22.78
2022-12-17T01:06:35.129Z,22.80
2022-12-17T01:09:24.113Z,22.66
2022-12-17T01:12:12.899Z,22.92
2022-12-17T01:15:12.871Z,22.76
2022-12-17T01:18:01.842Z,22.78
2022-12-17T01:20:50.467Z,22.78
2022-12-17T01:23:39.967Z,22.76
2022-12-17T01:26:28.891Z,22.63
2022-12-17T01:29:18.491Z,22.72
2022-12-17T01:32:07.518Z,22.70
2022-12-17T01:34:56.660Z,22.73
2022-12-17T01:37:48.903Z,22.42
2022-12-17T01:40:37.685Z,22.94
2022-12-17T01:43:33.583Z,23.31
2022-12-17T01:46:22.809Z,23.46
2022-12-17T01:49:11.503Z,23.19
2022-12-17T01:52:00.105Z,23.17
2022-12-17T01:54:48.906Z,23.27
2022-12-17T01:57:37.865Z,23.14
2022-12-17T02:00:30.058Z,22.94
2022-12-17T02:03:20.276Z,22.97
2022-12-17T02:06:29.312Z,22.99
2022-12-17T02:09:27.791Z,22.78
2022-12-17T02:12:24.276Z,22.69
2022-12-17T02:15:54.004Z,22.49
2022-12-17T02:18:45.771Z,22.59
2022-12-17T02:21:35.043Z,22.58
2022-12-17T02:24:46.523Z,22.34
2022-12-17T02:27:36.159Z,22.48
2022-12-17T02:30:27.373Z,22.41
2022-12-17T02:33:16.850Z,22.31
2022-12-17T02:36:12.586Z,22.19
2022-12-17T02:39:01.688Z,22.20
2022-12-17T02:42:12.091Z,22.43
2022-12-17T02:45:02.608Z,22.22
2022-12-17T02:47:52.350Z,22.31
2022-12-17T02:50:41.488Z,22.38
2022-12-17T02:53:30.789Z,22.26
2022-12-17T02:56:19.718Z,22.03
2022-12-17T02:59:08.711Z,22.00
2022-12-17T03:01:58.526Z,22.26
2022-12-17T03:04:47.644Z,22.01
2022-12-17T03:07:36.650Z,22.03
2022-12-17T03:10:26.482Z,21.89
2022-12-17T03:13:15.541Z,21.80
2022-12-17T03:16:04.318Z,21.91
2022-12-17T03:18:53.443Z,21.92
2022-12-17T03:21:45.742Z,21.96
2022-12-17T03:24:35.689Z,22.00
2022-12-17T03:27:24.306Z,21.86
2022-12-17T03:30:13.444Z,21.90
2022-12-17T03:33:02.514Z,22.04
2022-12-17T03:35:51.377Z,21.92
2022-12-17T03:38:40.590Z,22.09
2022-12-17T03:41:30.023Z,22.20
2022-12-17T03:44:18.869Z,22.48
2022-12-17T03:47:07.900Z,22.28
2022-12-17T03:49:57.209Z,22.17
2022-12-17T03:52:46.253Z,22.20
2022-12-17T03:55:35.180Z,22.26
2022-12-17T03:58:24.202Z,22.04
2022-12-17T04:01:13.012Z,21.85
2022-12-17T04:04:05.409Z,21.97
2022-12-17T04:06:55.306Z,22.02
2022-12-17T04:09:44.354Z,21.95
2022-12-17T04:12:36.697Z,22.19
2022-12-17T04:15:26.034Z,22.21
2022-12-17T04:18:15.083Z,22.15
2022-12-17T04:21:03.919Z,21.95
2022-12-17T04:23:52.721Z,21.70
2022-12-17T04:26:44.122Z,21.31
2022-12-17T04:29:33.032Z,21.12
2022-12-17T04:32:22.119Z,20.89
2022-12-17T04:35:10.993Z,20.60
2022-12-17T04:38:00.069Z,20.67
2022-12-17T04:40:49.012Z,20.54
2022-12-17T04:43:38.411Z,20.51
2022-12-17T04:46:27.745Z,20.26
2022-12-17T04:49:16.837Z,20.26
2022-12-17T04:52:05.909Z,20.44
2022-12-17T04:54:54.358Z,20.58
2022-12-17T04:57:43.345Z,20.63
2022-12-17T05:00:32.837Z,20.58
2022-12-17T05:03:26.262Z,20.48
2022-12-17T05:06:15.291Z,20.52
2022-12-17T05:09:04.065Z,20.34
2022-12-17T05:11:53.215Z,20.36
2022-12-17T05:14:41.986Z,20.44
2022-12-17T05:17:30.777Z,20.31
2022-12-17T05:20:19.859Z,20.32
2022-12-17T05:23:08.655Z,20.39
2022-12-17T05:25:58.109Z,20.46
2022-12-17T05:28:52.449Z,20.55
2022-12-17T05:31:41.638Z,20.49
2022-12-17T05:34:30.691Z,20.38
2022-12-17T05:37:19.745Z,20.53
2022-12-17T05:40:12.547Z,20.55
2022-12-17T05:43:01.730Z,20.38
2022-12-17T05:45:50.937Z,20.48
2022-12-17T05:48:39.889Z,20.56
2022-12-17T05:51:28.855Z,20.70
2022-12-17T05:54:17.815Z,20.64
2022-12-17T05:57:06.713Z,20.66
2022-12-17T05:59:55.287Z,20.84
2022-12-17T06:02:44.963Z,20.94
2022-12-17T06:05:34.195Z,21.01
2022-12-17T06:08:27.562Z,20.99
2022-12-17T06:11:19.661Z,20.85
2022-12-17T06:14:08.802Z,20.75
2022-12-17T06:16:57.772Z,20.77
2022-12-17T06:19:46.551Z,20.82
2022-12-17T06:22:35.348Z,20.69
2022-12-17T06:25:24.260Z,20.48
2022-12-17T06:28:37.876Z,20.40
2022-12-17T06:31:38.362Z,20.30
2022-12-17T06:34:27.365Z,20.15
2022-12-17T06:37:16.315Z,20.17
2022-12-17T06:40:05.200Z,20.26
2022-12-17T06:42:54.397Z,20.19
2022-12-17T06:45:43.396Z,20.28
2022-12-17T06:48:32.265Z,20.27
2022-12-17T06:51:21.224Z,20.25
2022-12-17T06:54:10.289Z,20.25
2022-12-17T06:56:58.886Z,20.10
2022-12-17T07:00:04.435Z,20.00
2022-12-17T07:02:53.901Z,19.90
2022-12-17T07:05:43.035Z,20.03
2022-12-17T07:08:33.013Z,19.85
2022-12-17T07:11:22.655Z,19.81
2022-12-17T07:14:11.644Z,19.83
2022-12-17T07:17:00.730Z,19.70
2022-12-17T07:19:49.947Z,19.57
2022-12-17T07:22:38.799Z,19.56
2022-12-17T07:25:28.508Z,19.53
2022-12-17T07:28:17.575Z,19.48
2022-12-17T07:31:06.395Z,19.42
2022-12-17T07:33:56.131Z,19.35
2022-12-17T07:36:46.289Z,19.23
2022-12-17T07:39:35.279Z,19.30
2022-12-17T07:42:24.153Z,19.14
2022-12-17T07:45:12.926Z,19.08
2022-12-17T07:48:01.546Z,19.15
2022-12-17T07:50:52.236Z,19.06
2022-12-17T07:53:41.210Z,19.08
2022-12-17T07:56:30.034Z,19.07
2022-12-17T07:59:19.088Z,19.05
2022-12-17T08:02:08.148Z,19.14
2022-12-17T08:04:57.117Z,19.07
2022-12-17T08:07:46.600Z,18.97
2022-12-17T08:10:46.680Z,19.00
2022-12-17T08:13:36.088Z,19.03
2022-12-17T08:16:25.752Z,19.03
2022-12-17T08:19:14.613Z,19.01
2022-12-17T08:22:03.318Z,18.87
2022-12-17T08:24:52.328Z,18.79
2022-12-17T08:27:41.551Z,18.81
2022-12-17T08:30:31.012Z,18.84
2022-12-17T08:33:26.387Z,18.79
2022-12-17T08:36:16.850Z,18.68
2022-12-17T08:39:06.096Z,18.91
2022-12-17T08:41:56.599Z,18.81
2022-12-17T08:44:47.968Z,18.72
2022-12-17T08:47:36.980Z,18.81
2022-12-17T08:50:26.841Z,18.85
2022-12-17T08:53:23.129Z,18.83
2022-12-17T08:56:12.129Z,18.91
2022-12-17T08:59:00.804Z,18.64
2022-12-17T09:01:49.942Z,18.77
2022-12-17T09:04:39.183Z,18.76
2022-12-17T09:07:28.340Z,18.71
2022-12-17T09:10:17.234Z,18.87
2022-12-17T09:13:06.104Z,18.81
2022-12-17T09:15:54.869Z,18.74
2022-12-17T09:18:43.964Z,18.80
2022-12-17T09:21:32.949Z,18.84
2022-12-17T09:24:21.680Z,18.66
2022-12-17T09:27:10.683Z,18.83
2022-12-17T09:30:00.038Z,18.75
2022-12-17T09:32:48.847Z,18.69
2022-12-17T09:35:37.935Z,18.75
2022-12-17T09:38:28.303Z,18.62
2022-12-17T09:41:23.199Z,18.66
2022-12-17T09:44:24.809Z,18.70
2022-12-17T09:47:19.703Z,18.73
2022-12-17T09:50:08.483Z,18.83
2022-12-17T09:53:00.393Z,18.75
2022-12-17T09:56:00.181Z,18.65
2022-12-17T09:58:50.564Z,18.71
2022-12-17T10:01:44.309Z,18.68
2022-12-17T10:04:39.840Z,18.73
2022-12-17T10:07:37.766Z,18.72
2022-12-17T10:10:42.670Z,18.65
2022-12-17T10:13:33.876Z,18.59
2022-12-17T10:16:23.185Z,18.65
2022-12-17T10:19:25.739Z,18.65
2022-12-17T10:22:14.635Z,18.78
2022-12-17T10:25:06.824Z,18.63
2022-12-17T10:27:55.965Z,18.72
2022-12-17T10:30:47.445Z,18.70
2022-12-17T10:33:53.983Z,18.81
2022-12-17T10:36:45.073Z,18.69
2022-12-17T10:39:43.376Z,18.72
2022-12-17T10:42:58.873Z,18.71
2022-12-17T10:45:53.724Z,18.72
2022-12-17T10:48:47.446Z,18.83
2022-12-17T10:51:48.728Z,18.66
2022-12-17T10:54:50.159Z,18.75
2022-12-17T10:57:47.625Z,18.75
2022-12-17T11:00:49.442Z,18.80
2022-12-17T11:03:52.805Z,18.75
2022-12-17T11:06:51.339Z,18.66
2022-12-17T11:09:55.626Z,18.72
2022-12-17T11:12:56.798Z,18.70
2022-12-17T11:15:54.485Z,18.58
2022-12-17T11:19:00.576Z,18.64
2022-12-17T11:21:53.966Z,18.66
2022-12-17T11:24:50.114Z,18.64
2022-12-17T11:27:45.753Z,18.80
2022-12-17T11:30:35.827Z,18.72
2022-12-17T11:33:49.817Z,18.70
2022-12-17T11:36:55.815Z,18.70
2022-12-17T11:40:04.603Z,18.69
2022-12-17T11:43:01.720Z,18.68
2022-12-17T11:46:10.523Z,18.68
2022-12-17T11:49:34.597Z,18.79
2022-12-17T11:52:43.494Z,18.80
2022-12-17T11:55:57.897Z,18.71
2022-12-17T11:59:06.838Z,18.70
2022-12-17T12:02:05.054Z,18.67
2022-12-17T12:05:04.738Z,18.84
2022-12-17T12:08:08.934Z,18.77
2022-12-17T12:11:14.470Z,18.67
2022-12-17T12:14:41.312Z,18.61
2022-12-17T12:17:53.985Z,18.61
2022-12-17T12:21:04.638Z,18.55
2022-12-17T12:24:15.000Z,18.57
2022-12-17T12:27:20.406Z,18.64
2022-12-17T12:30:36.462Z,18.59
2022-12-17T12:33:51.619Z,18.55
2022-12-17T12:36:42.106Z,18.58
2022-12-17T12:39:33.467Z,18.58
2022-12-17T12:42:35.696Z,18.60
2022-12-17T12:45:37.105Z,18.61
2022-12-17T12:48:44.335Z,18.66
2022-12-17T12:51:58.062Z,18.75
2022-12-17T12:55:07.151Z,18.69
2022-12-17T12:58:28.202Z,18.74
2022-12-17T13:01:17.096Z,18.63
2022-12-17T13:04:06.054Z,18.63
2022-12-17T13:06:58.382Z,18.62
2022-12-17T13:09:34.260Z,18.65
2022-12-17T13:12:06.121Z,18.61
2022-12-17T13:15:09.939Z,18.65
2022-12-17T13:17:45.064Z,18.60
2022-12-17T13:20:26.967Z,18.65
2022-12-17T13:23:29.081Z,18.57
2022-12-17T13:26:23.574Z,18.64
2022-12-17T13:29:03.526Z,18.64
2022-12-17T13:32:07.978Z,18.62
2022-12-17T13:34:56.941Z,18.63
2022-12-17T13:37:55.227Z,18.57
2022-12-17T13:40:58.646Z,18.67
2022-12-17T13:43:34.851Z,18.67
2022-12-17T13:46:05.860Z,18.63
2022-12-17T13:48:37.415Z,18.60
2022-12-17T13:51:08.709Z,18.61
2022-12-17T13:53:40.792Z,18.59
2022-12-17T13:56:12.665Z,18.61
2022-12-17T13:58:48.177Z,18.54
2022-12-17T14:01:21.984Z,18.50
2022-12-17T14:04:06.253Z,18.55
2022-12-17T14:06:39.994Z,18.62
2022-12-17T14:09:18.726Z,18.54
2022-12-17T14:12:09.233Z,18.62
2022-12-17T14:14:43.160Z,18.65
2022-12-17T14:17:40.847Z,18.71
2022-12-17T14:20:28.665Z,18.61
2022-12-17T14:23:07.582Z,18.58
2022-12-17T14:25:40.743Z,18.72
2022-12-17T14:28:38.256Z,18.56
2022-12-17T14:31:27.687Z,18.51
2022-12-17T14:34:08.895Z,18.55
2022-12-17T14:36:42.227Z,18.55
2022-12-17T14:39:45.969Z,18.61
2022-12-17T14:42:32.185Z,18.58
2022-12-17T14:45:27.729Z,18.62
2022-12-17T14:48:03.360Z,18.64
2022-12-17T14:50:36.756Z,18.74
2022-12-17T14:53:29.351Z,18.65
2022-12-17T14:56:01.302Z,18.67
2022-12-17T14:58:32.405Z,18.62
2022-12-17T15:01:12.751Z,18.69
2022-12-17T15:03:47.644Z,18.73
2022-12-17T15:06:22.221Z,18.67
2022-12-17T15:08:54.891Z,18.72
2022-12-17T15:11:26.680Z,18.67
2022-12-17T15:13:57.587Z,18.66
2022-12-17T15:16:28.670Z,18.60
2022-12-17T15:18:59.696Z,18.65
2022-12-17T15:21:30.767Z,18.61
2022-12-17T15:24:01.788Z,18.65
2022-12-17T15:26:32.691Z,18.65
2022-12-17T15:29:03.921Z,18.73
2022-12-17T15:31:35.839Z,18.62
2022-12-17T15:34:07.267Z,18.57
2022-12-17T15:36:37.734Z,18.63
2022-12-17T15:39:08.709Z,18.54
2022-12-17T15:41:57.486Z,18.51
2022-12-17T15:44:29.153Z,18.57
2022-12-17T15:47:00.699Z,18.52
2022-12-17T15:49:31.580Z,18.54
2022-12-17T15:52:02.223Z,18.48
2022-12-17T15:54:32.970Z,18.61
2022-12-17T15:57:03.723Z,18.53
2022-12-17T15:59:35.162Z,18.43
2022-12-17T16:02:06.288Z,18.46
2022-12-17T16:04:39.036Z,18.57
2022-12-17T16:07:09.992Z,18.55
2022-12-17T16:09:41.317Z,18.55
2022-12-17T16:12:12.210Z,18.53
2022-12-17T16:14:43.036Z,18.63
2022-12-17T16:17:13.910Z,18.54
2022-12-17T16:19:44.662Z,18.48
2022-12-17T16:22:15.606Z,18.53
2022-12-17T16:24:46.477Z,18.54
2022-12-17T16:27:19.618Z,18.49
2022-12-17T16:29:50.584Z,18.50
2022-12-17T16:32:21.479Z,18.46
2022-12-17T16:34:52.167Z,18.46
2022-12-17T16:37:23.133Z,18.47
2022-12-17T16:39:59.753Z,18.42
2022-12-17T16:42:32.324Z,18.45
2022-12-17T16:45:03.196Z,18.39
2022-12-17T16:47:34.398Z,18.41
2022-12-17T16:50:05.351Z,18.36
2022-12-17T16:52:36.753Z,18.38
2022-12-17T16:55:07.846Z,18.42
2022-12-17T16:57:38.957Z,18.36
2022-12-17T17:00:10.448Z,18.37
2022-12-17T17:02:41.731Z,18.41
2022-12-17T17:05:14.042Z,18.38
2022-12-17T17:07:51.053Z,18.34
2022-12-17T17:10:21.907Z,18.44
2022-12-17T17:12:56.314Z,18.42
2022-12-17T17:15:27.238Z,18.36
2022-12-17T17:18:01.666Z,18.36
2022-12-17T17:20:33.636Z,18.27
2022-12-17T17:23:04.738Z,18.38
2022-12-17T17:25:57.272Z,18.30
2022-12-17T17:28:26.523Z,18.33
2022-12-17T17:31:08.875Z,18.33
2022-12-17T17:33:42.041Z,18.39
2022-12-17T17:36:21.058Z,18.39
2022-12-17T17:38:53.347Z,18.54
2022-12-17T17:41:26.006Z,18.42
2022-12-17T17:43:58.772Z,18.46
2022-12-17T17:46:30.853Z,18.47
2022-12-17T17:49:03.534Z,18.48
2022-12-17T17:54:33.792Z,18.45
2022-12-17T17:57:04.538Z,18.59
2022-12-17T17:59:35.537Z,18.55
2022-12-17T18:02:06.844Z,18.50
2022-12-17T18:04:37.559Z,18.57
2022-12-17T18:10:01.132Z,18.66
2022-12-17T18:12:50.977Z,18.71
2022-12-17T18:15:21.709Z,18.51
2022-12-17T18:17:53.906Z,18.64
2022-12-17T18:20:24.961Z,18.74
2022-12-17T18:22:55.698Z,18.65
2022-12-17T18:25:26.662Z,18.68
2022-12-17T18:27:57.875Z,18.69
2022-12-17T18:30:28.589Z,18.77
2022-12-17T18:32:59.459Z,18.85
2022-12-17T18:35:30.409Z,18.89
2022-12-17T18:38:01.267Z,18.95
2022-12-17T18:40:33.612Z,19.07
2022-12-17T18:43:22.675Z,18.94
2022-12-17T18:45:54.887Z,19.07
2022-12-17T18:48:25.750Z,19.07
2022-12-17T18:51:02.723Z,19.04
2022-12-17T18:53:35.064Z,19.26
2022-12-17T18:56:19.357Z,19.52
2022-12-17T18:58:57.822Z,19.59
2022-12-17T19:01:33.847Z,19.76
2022-12-17T19:04:07.331Z,19.80
2022-12-17T19:06:39.961Z,20.16
2022-12-17T19:09:17.735Z,19.83
2022-12-17T19:11:48.764Z,20.07
2022-12-17T19:14:19.890Z,20.12
2022-12-17T19:16:52.446Z,20.33
2022-12-17T19:19:24.094Z,20.36
2022-12-17T19:21:56.317Z,20.61
2022-12-17T19:24:27.128Z,20.51
2022-12-17T19:26:58.206Z,20.62
2022-12-17T19:29:29.145Z,20.63
2022-12-17T19:32:00.176Z,20.65
2022-12-17T19:34:31.133Z,20.79
2022-12-17T19:37:01.954Z,20.92
2022-12-17T19:39:32.646Z,21.06
2022-12-17T19:42:03.340Z,21.01
2022-12-17T19:44:35.592Z,20.97
2022-12-17T19:47:07.134Z,21.37
2022-12-17T19:49:38.103Z,21.16
2022-12-17T19:52:09.570Z,21.25
2022-12-17T19:54:40.565Z,21.29
2022-12-17T19:57:11.229Z,21.18
2022-12-17T19:59:49.391Z,21.15
2022-12-17T20:02:22.194Z,21.18
2022-12-17T20:04:53.131Z,21.50
2022-12-17T20:07:24.026Z,21.89
2022-12-17T20:09:57.617Z,22.17
2022-12-17T20:12:28.319Z,22.62
2022-12-17T20:14:59.059Z,22.97
2022-12-17T20:17:29.806Z,23.10
2022-12-17T20:20:00.536Z,22.69
2022-12-17T20:22:32.192Z,22.39
2022-12-17T20:25:06.290Z,22.80
2022-12-17T20:27:37.003Z,22.31
2022-12-17T20:30:09.031Z,22.00
2022-12-17T20:32:40.034Z,22.12
2022-12-17T20:35:11.132Z,22.73
2022-12-17T20:37:41.871Z,22.90
2022-12-17T20:40:13.226Z,23.14
2022-12-17T20:42:43.728Z,23.86
2022-12-17T20:45:14.732Z,23.55
2022-12-17T20:47:46.009Z,23.39
2022-12-17T20:50:16.276Z,24.24
2022-12-17T20:52:47.876Z,23.89
2022-12-17T20:55:18.805Z,23.72
2022-12-17T20:57:49.962Z,24.53
2022-12-17T21:00:20.773Z,23.74
2022-12-17T21:02:52.164Z,24.29
2022-12-17T21:05:23.075Z,23.95
2022-12-17T21:07:54.310Z,23.76
2022-12-17T21:10:25.583Z,24.10
2022-12-17T21:13:17.230Z,25.18
2022-12-17T21:15:55.539Z,25.02
2022-12-17T21:18:32.506Z,24.89
2022-12-17T21:21:07.300Z,25.15
2022-12-17T21:23:43.471Z,25.42
2022-12-17T21:26:20.233Z,25.49
2022-12-17T21:28:53.767Z,25.67
2022-12-17T21:31:30.167Z,25.88
2022-12-17T21:34:03.186Z,25.25
2022-12-17T21:36:35.689Z,24.84
2022-12-17T21:39:09.458Z,24.69
2022-12-17T21:41:44.470Z,25.05
2022-12-17T21:44:16.084Z,25.10
2022-12-17T21:46:50.303Z,25.58
2022-12-17T21:49:21.398Z,24.86
2022-12-17T21:51:52.510Z,25.72
2022-12-17T21:54:23.489Z,26.22
2022-12-17T21:56:54.632Z,26.24
2022-12-17T21:59:25.573Z,26.77
2022-12-17T22:01:58.600Z,26.19
2022-12-17T22:04:29.733Z,25.59
2022-12-17T22:07:08.566Z,26.23
2022-12-17T22:10:10.044Z,26.74
2022-12-17T22:12:50.528Z,26.99
2022-12-17T22:15:21.602Z,27.27
2022-12-17T22:17:57.075Z,25.90
2022-12-17T22:20:29.087Z,26.62
2022-12-17T22:22:59.868Z,26.70
2022-12-17T22:25:30.532Z,26.22
2022-12-17T22:28:01.398Z,26.34
2022-12-17T22:30:50.408Z,25.92
2022-12-17T22:33:53.597Z,27.05
2022-12-17T22:38:03.301Z,26.16
2022-12-17T22:43:15.983Z,25.91
2022-12-17T22:44:29.421Z,26.45
2022-12-17T22:45:11.408Z,26.15
2022-12-17T22:47:42.890Z,26.31
2022-12-17T22:50:13.622Z,26.05
2022-12-17T22:52:45.194Z,25.97
2022-12-17T22:55:17.055Z,26.40
2022-12-17T22:57:47.743Z,26.82
2022-12-17T23:00:23.638Z,26.27
2022-12-17T23:02:59.078Z,26.80
2022-12-17T23:05:31.507Z,26.61
2022-12-17T23:08:02.551Z,26.91
2022-12-17T23:10:33.491Z,26.64
2022-12-17T23:13:04.286Z,27.04
2022-12-17T23:15:39.253Z,26.38
2022-12-17T23:18:11.095Z,25.94
2022-12-17T23:20:42.095Z,25.90
2022-12-17T23:23:13.135Z,25.50
2022-12-17T23:25:44.008Z,25.51
2022-12-17T23:28:15.461Z,25.69
2022-12-17T23:30:46.204Z,25.16
2022-12-17T23:33:17.149Z,25.48
2022-12-17T23:35:48.294Z,26.13
2022-12-17T23:38:18.920Z,27.25
2022-12-17T23:40:49.962Z,27.69
2022-12-17T23:43:20.915Z,27.29
2022-12-17T23:45:51.625Z,27.89
2022-12-17T23:48:22.836Z,27.70
2022-12-17T23:50:53.935Z,27.48
2022-12-17T23:53:25.009Z,27.50
2022-12-17T23:55:56.624Z,26.98
2022-12-17T23:58:27.036Z,27.73
